Time;durP1;ratioP1;P1;durP2;ratioP2;P2;SDS_P1;SDS_P2;PMS_P1;PMS_P2;Temp;Humidity;BMP_temperature;BMP_pressure;BME280_temperature;BME280_humidity;BME280_pressure;Samples;Min_cycle;Max_cycle;Signal;HPM_P1;HPM_P2
2022/09/27 00:00:30;;;;;;;5.80;1.42;;;;;;;11.61;90.60;99730.69;5042387;28;20046;-74
2022/09/27 00:02:56;;;;;;;4.53;0.95;;;;;;;11.64;90.83;99729.81;5036257;28;20562;-74
2022/09/27 00:05:22;;;;;;;6.65;1.30;;;;;;;11.64;90.93;99733.25;5040107;28;20047;-74
2022/09/27 00:07:47;;;;;;;5.22;1.50;;;;;;;11.62;91.19;99737.56;5022387;28;20039;-74
2022/09/27 00:10:13;;;;;;;6.50;1.80;;;;;;;11.58;91.13;99740.09;5019657;28;20381;-74
2022/09/27 00:12:39;;;;;;;5.80;1.30;;;;;;;11.57;91.65;99739.22;5036342;28;20028;-74
2022/09/27 00:15:06;;;;;;;6.40;1.20;;;;;;;11.61;91.68;99753.00;5039823;28;20483;-74
2022/09/27 00:17:31;;;;;;;3.88;1.27;;;;;;;11.65;91.56;99753.03;5023536;28;20030;-74
2022/09/27 00:20:00;;;;;;;6.18;1.58;;;;;;;11.66;91.84;99753.88;5040507;28;20408;-74
2022/09/27 00:22:26;;;;;;;5.15;1.55;;;;;;;11.65;91.39;99760.75;5037288;28;20025;-74
2022/09/27 00:24:52;;;;;;;6.78;1.13;;;;;;;11.63;91.41;99767.59;5040204;28;20036;-74
2022/09/27 00:27:18;;;;;;;5.97;1.25;;;;;;;11.64;91.26;99759.00;5030052;28;20059;-74
2022/09/27 00:29:44;;;;;;;8.50;1.30;;;;;;;11.68;90.91;99765.91;5035403;28;20389;-74
2022/09/27 00:32:10;;;;;;;9.10;1.10;;;;;;;11.61;90.47;99760.72;5034802;28;20063;-75
2022/09/27 00:34:36;;;;;;;5.80;0.85;;;;;;;11.59;90.34;99752.09;5037456;28;20036;-74
2022/09/27 00:37:01;;;;;;;6.30;0.90;;;;;;;11.53;90.30;99756.38;5037621;28;20033;-74
2022/09/27 00:39:27;;;;;;;6.15;0.90;;;;;;;11.58;90.56;99751.25;5036329;28;20070;-74
2022/09/27 00:41:53;;;;;;;3.47;0.90;;;;;;;11.56;90.60;99763.25;5019525;28;20032;-74
2022/09/27 00:44:24;;;;;;;3.92;0.60;;;;;;;11.60;90.67;99765.00;5034756;28;20064;-74
2022/09/27 00:47:24;;;;;;;2.97;0.70;;;;;;;11.63;90.46;99766.72;5020655;28;20510;-74
2022/09/27 00:49:59;;;;;;;4.82;0.85;;;;;;;11.52;89.84;99771.81;5040176;28;20028;-74
2022/09/27 00:52:36;;;;;;;2.78;0.50;;;;;;;11.57;89.84;99769.25;5039617;28;20772;-74
2022/09/27 00:55:10;;;;;;;5.35;0.82;;;;;;;11.57;90.04;99771.84;5035339;28;20033;-74
2022/09/27 00:57:36;;;;;;;5.15;0.60;;;;;;;11.55;89.35;99771.84;5037842;28;20107;-74
2022/09/27 01:00:08;;;;;;;4.63;0.70;;;;;;;11.58;89.67;99773.56;5039932;28;20056;-74
2022/09/27 01:02:37;;;;;;;5.05;1.02;;;;;;;11.49;89.59;99780.38;5030673;28;20029;-74
2022/09/27 01:05:04;;;;;;;4.13;0.63;;;;;;;11.51;89.91;99786.38;5036153;28;20032;-74
2022/09/27 01:07:30;;;;;;;2.45;0.52;;;;;;;11.53;90.04;99786.41;5037233;28;20027;-74
2022/09/27 01:09:55;;;;;;;4.70;0.82;;;;;;;11.55;90.17;99784.72;5037814;28;20038;-74
2022/09/27 01:12:59;;;;;;;3.35;0.75;;;;;;;11.61;90.23;99774.44;5039313;28;20056;-74
2022/09/27 01:15:30;;;;;;;3.45;0.68;;;;;;;11.59;90.16;99777.84;4999390;28;20516;-74
2022/09/27 01:18:37;;;;;;;4.70;0.90;;;;;;;11.65;90.19;99776.22;5040486;28;20067;-74
2022/09/27 01:21:28;;;;;;;6.00;0.73;;;;;;;11.65;90.04;99777.88;5041144;28;20025;-74
2022/09/27 01:24:03;;;;;;;2.75;0.55;;;;;;;11.63;90.01;99779.59;5039438;28;20029;-74
2022/09/27 01:26:56;;;;;;;4.78;0.65;;;;;;;11.65;90.02;99772.75;5039040;28;20017;-74
2022/09/27 01:29:50;;;;;;;5.40;0.65;;;;;;;11.63;89.63;99782.19;5024770;28;20090;-74
2022/09/27 01:32:30;;;;;;;4.28;0.90;;;;;;;11.63;89.49;99783.03;5038777;28;20030;-74
2022/09/27 01:35:08;;;;;;;5.53;0.70;;;;;;;11.62;89.59;99778.75;5028585;28;20139;-74
2022/09/27 01:38:02;;;;;;;6.53;0.90;;;;;;;11.61;89.36;99782.19;5033402;28;20388;-74
2022/09/27 01:40:53;;;;;;;4.75;0.80;;;;;;;11.58;89.04;99787.28;5021039;28;20047;-74
2022/09/27 01:43:46;;;;;;;3.47;0.70;;;;;;;11.57;89.00;99787.28;5019861;28;20025;-74
2022/09/27 01:46:26;;;;;;;5.30;0.80;;;;;;;11.55;89.09;99784.72;5010585;28;20821;-74
2022/09/27 01:48:53;;;;;;;4.20;0.73;;;;;;;11.50;89.04;99791.53;5038329;28;20168;-74
2022/09/27 01:51:29;;;;;;;4.03;0.68;;;;;;;11.50;89.18;99804.41;5018214;28;20495;-74
2022/09/27 01:54:00;;;;;;;8.23;1.02;;;;;;;11.48;88.33;99798.41;5036842;28;20028;-74
2022/09/27 01:56:40;;;;;;;3.78;0.75;;;;;;;11.51;88.72;99798.41;5034333;28;20043;-74
2022/09/27 01:59:18;;;;;;;3.63;0.80;;;;;;;11.48;88.80;99793.25;5039853;28;20476;-74
2022/09/27 02:01:49;;;;;;;4.90;0.80;;;;;;;11.38;88.74;99786.28;5036028;28;20684;-74
2022/09/27 02:04:19;;;;;;;5.22;0.80;;;;;;;11.42;87.98;99801.78;5032553;28;20079;-74
2022/09/27 02:06:48;;;;;;;3.47;0.68;;;;;;;11.38;88.62;99788.88;5036932;28;20060;-74
2022/09/27 02:09:18;;;;;;;4.90;1.20;;;;;;;11.40;88.67;99782.88;5027793;28;20037;-74
2022/09/27 02:11:48;;;;;;;3.35;0.52;;;;;;;11.39;88.12;99785.44;5034102;28;20515;-74
2022/09/27 02:14:20;;;;;;;3.50;0.70;;;;;;;11.37;87.83;99788.00;5036513;28;20020;-74
2022/09/27 02:16:46;;;;;;;3.33;0.80;;;;;;;11.36;87.46;99795.72;5034887;28;20048;-74
2022/09/27 02:19:17;;;;;;;4.68;0.60;;;;;;;11.39;87.37;99790.59;5037922;28;20483;-74
2022/09/27 02:22:17;;;;;;;5.60;0.60;;;;;;;11.35;86.72;99788.88;5030642;28;20030;-74
2022/09/27 02:24:51;;;;;;;2.17;0.40;;;;;;;11.33;86.29;99793.97;5021046;28;20488;-74
2022/09/27 02:27:26;;;;;;;5.28;0.70;;;;;;;11.30;86.49;99793.09;5036192;28;20040;-74
2022/09/27 02:30:12;;;;;;;5.60;0.60;;;;;;;11.32;86.37;99791.41;5015187;28;20024;-74
2022/09/27 02:32:38;;;;;;;1.95;0.50;;;;;;;11.23;85.91;99790.50;5033873;28;20033;-74
2022/09/27 02:35:15;;;;;;;4.18;0.88;;;;;;;11.22;85.14;99799.06;5035791;28;20029;-74
2022/09/27 02:37:41;;;;;;;3.38;0.55;;;;;;;11.15;85.58;99796.41;5024236;28;20040;-74
2022/09/27 02:40:07;;;;;;;3.78;0.63;;;;;;;11.16;85.25;99804.16;5037483;28;20028;-74
2022/09/27 02:42:33;;;;;;;2.20;0.55;;;;;;;11.11;85.79;99808.38;5035637;28;20514;-74
2022/09/27 02:45:00;;;;;;;5.75;1.05;;;;;;;11.07;85.81;99808.34;5033265;28;20029;-74
2022/09/27 02:47:44;;;;;;;5.05;0.80;;;;;;;11.16;86.19;99805.84;5018308;28;20476;-74
2022/09/27 02:50:34;;;;;;;1.90;0.60;;;;;;;11.13;86.02;99798.97;5041983;28;20021;-74
2022/09/27 02:53:37;;;;;;;4.72;0.60;;;;;;;11.15;86.21;99802.41;5037263;28;20108;-74
2022/09/27 02:56:07;;;;;;;4.40;0.77;;;;;;;11.11;85.58;99810.97;5021103;28;20029;-74
2022/09/27 02:58:49;;;;;;;4.30;0.80;;;;;;;11.04;85.09;99804.00;5036590;28;20480;-74
2022/09/27 03:01:39;;;;;;;6.07;0.80;;;;;;;11.06;85.91;99796.34;5022648;28;20059;-74
2022/09/27 03:04:22;;;;;;;2.78;0.60;;;;;;;11.04;86.03;99793.72;5038416;28;20036;-74
2022/09/27 03:06:50;;;;;;;8.80;0.90;;;;;;;10.97;86.03;99797.09;5034065;28;20692;-74
2022/09/27 03:09:20;;;;;;;5.55;0.80;;;;;;;10.99;85.67;99798.00;5036924;28;20033;-74
2022/09/27 03:11:46;;;;;;;4.45;0.80;;;;;;;10.93;85.36;99793.66;5034352;28;20037;-74
2022/09/27 03:14:11;;;;;;;4.63;0.82;;;;;;;10.93;85.39;99783.34;5039068;28;20021;-74
2022/09/27 03:16:37;;;;;;;3.83;0.65;;;;;;;10.89;84.85;99785.88;5036858;28;21595;-74
2022/09/27 03:19:02;;;;;;;4.05;0.60;;;;;;;10.96;85.45;99798.81;5004398;28;20037;-74
2022/09/27 03:21:28;;;;;;;3.95;0.55;;;;;;;10.90;85.45;99790.16;5037707;28;20465;-74
2022/09/27 03:23:53;;;;;;;8.02;1.02;;;;;;;10.91;85.07;99794.47;5041748;28;20080;-74
2022/09/27 03:26:18;;;;;;;3.15;0.60;;;;;;;10.89;85.63;99798.75;5045097;28;20021;-74
2022/09/27 03:28:44;;;;;;;4.95;1.00;;;;;;;10.78;85.86;99797.75;5040363;28;20451;-74
2022/09/27 03:31:10;;;;;;;6.68;0.90;;;;;;;10.81;85.93;99801.25;5044252;28;20037;-74
2022/09/27 03:33:35;;;;;;;6.90;0.73;;;;;;;10.76;86.07;99807.19;5045219;28;20036;-73
2022/09/27 03:36:01;;;;;;;5.13;0.77;;;;;;;10.76;86.46;99813.19;5042103;28;20033;-74
2022/09/27 03:38:26;;;;;;;5.22;0.80;;;;;;;10.77;86.37;99819.19;5028995;28;20044;-73
2022/09/27 03:40:52;;;;;;;5.55;0.90;;;;;;;10.76;86.67;99814.91;5024933;28;20045;-74
2022/09/27 03:43:17;;;;;;;2.78;0.75;;;;;;;10.79;86.32;99822.63;5044063;28;20049;-74
2022/09/27 03:45:44;;;;;;;5.50;0.90;;;;;;;10.81;86.74;99833.81;5026750;28;20468;-74
2022/09/27 03:48:10;;;;;;;8.45;0.80;;;;;;;10.79;86.75;99845.78;5040634;28;20480;-74
2022/09/27 03:50:35;;;;;;;7.05;1.10;;;;;;;10.69;87.30;99857.69;5033886;28;20044;-74
2022/09/27 03:53:01;;;;;;;5.07;0.93;;;;;;;10.74;87.23;99862.03;5038350;28;20033;-74
2022/09/27 03:55:26;;;;;;;5.05;0.70;;;;;;;10.71;87.25;99872.28;5044400;28;20728;-74
2022/09/27 03:57:52;;;;;;;5.65;0.85;;;;;;;10.72;87.49;99880.84;5014835;28;20036;-75
2022/09/27 04:00:18;;;;;;;7.50;0.80;;;;;;;10.64;87.25;99872.19;5026294;28;20073;-74
2022/09/27 04:02:43;;;;;;;4.90;0.80;;;;;;;10.60;87.16;99867.84;5022171;28;20515;-74
2022/09/27 04:05:09;;;;;;;6.38;0.70;;;;;;;10.62;86.85;99861.03;5026649;28;20033;-74
2022/09/27 04:07:35;;;;;;;2.25;0.60;;;;;;;10.65;86.91;99861.91;5046901;28;20033;-73
2022/09/27 04:10:00;;;;;;;4.68;0.70;;;;;;;10.65;87.03;99859.34;5045986;28;20035;-73
2022/09/27 04:12:26;;;;;;;3.17;0.70;;;;;;;10.64;86.49;99855.06;5042621;28;20033;-75
2022/09/27 04:14:51;;;;;;;3.28;0.43;;;;;;;10.67;86.11;99844.78;5030452;28;20052;-74
2022/09/27 04:17:17;;;;;;;2.50;0.50;;;;;;;10.68;87.08;99831.09;5044484;28;20511;-74
2022/09/27 04:19:42;;;;;;;1.55;0.35;;;;;;;10.68;86.60;99828.53;5046758;28;20028;-74
2022/09/27 04:22:07;;;;;;;4.32;0.50;;;;;;;10.71;86.86;99830.25;5047344;28;20480;-74
2022/09/27 04:24:32;;;;;;;6.15;0.50;;;;;;;10.62;87.09;99828.47;5030552;28;20390;-74
2022/09/27 04:26:58;;;;;;;3.38;0.52;;;;;;;10.65;86.67;99813.06;5037528;28;20144;-74
2022/09/27 04:29:24;;;;;;;4.65;0.70;;;;;;;10.69;87.81;99827.69;5047720;28;20062;-75
2022/09/27 04:31:50;;;;;;;3.35;0.63;;;;;;;10.71;87.27;99823.41;5042891;28;20029;-74
2022/09/27 04:34:16;;;;;;;4.68;0.75;;;;;;;10.64;87.87;99821.63;5045123;28;20027;-75
2022/09/27 04:36:41;;;;;;;4.30;0.77;;;;;;;10.73;87.80;99826.00;5041330;28;20037;-74
2022/09/27 04:39:08;;;;;;;3.72;0.70;;;;;;;10.67;88.47;99826.78;5040006;28;20403;-74
2022/09/27 04:41:34;;;;;;;3.67;0.60;;;;;;;10.66;88.04;99827.63;5042626;28;20025;-74
2022/09/27 04:44:00;;;;;;;4.18;0.70;;;;;;;10.67;87.83;99829.34;5043631;28;20547;-74
2022/09/27 04:46:30;;;;;;;3.70;0.77;;;;;;;10.64;87.67;99831.91;5041622;28;20179;-74
2022/09/27 04:48:56;;;;;;;;;;;;;;;10.85;86.99;99833.84;5043129;28;20364;-75
2022/09/27 04:51:21;;;;;;;5.60;0.70;;;;;;;10.64;87.48;99838.75;5026687;28;19925;-74
2022/09/27 04:53:46;;;;;;;4.63;0.80;;;;;;;10.61;87.24;99836.13;5039976;28;20044;-74
2022/09/27 04:56:13;;;;;;;2.33;0.50;;;;;;;10.55;87.48;99857.50;5041717;28;20061;-74
2022/09/27 04:58:38;;;;;;;4.03;0.60;;;;;;;10.53;87.35;99856.63;5033317;28;20424;-74
2022/09/27 05:01:04;;;;;;;2.78;0.70;;;;;;;10.52;87.07;99859.19;5025062;28;20053;-74
2022/09/27 05:03:31;;;;;;;3.20;0.40;;;;;;;10.56;87.46;99877.25;5045637;28;20036;-74
2022/09/27 05:05:57;;;;;;;1.88;0.40;;;;;;;10.57;87.31;99883.25;5043695;28;20410;-74
2022/09/27 05:08:22;;;;;;;1.55;0.30;;;;;;;10.48;87.47;99892.53;5042034;28;20155;-74
2022/09/27 05:10:48;;;;;;;2.20;0.47;;;;;;;10.50;87.56;99892.59;5043078;28;20762;-75
2022/09/27 05:13:14;;;;;;;2.13;0.40;;;;;;;10.55;87.56;99880.63;5023528;28;20053;-75
2022/09/27 05:15:40;;;;;;;3.85;0.50;;;;;;;10.49;87.79;99883.13;5045470;28;20028;-74
2022/09/27 05:18:07;;;;;;;2.65;0.43;;;;;;;10.53;87.68;99877.19;5022607;28;20395;-75
2022/09/27 05:20:33;;;;;;;3.40;0.50;;;;;;;10.51;87.76;99875.47;5044659;28;20085;-74
2022/09/27 05:22:59;;;;;;;3.78;0.82;;;;;;;10.54;88.11;99872.91;5041049;28;20455;-73
2022/09/27 05:25:24;;;;;;;3.67;0.52;;;;;;;10.55;88.31;99852.34;5029093;28;20056;-74
2022/09/27 05:27:50;;;;;;;3.10;0.60;;;;;;;10.52;88.26;99849.75;5021973;28;20327;-73
2022/09/27 05:30:16;;;;;;;3.28;0.50;;;;;;;10.49;88.04;99842.00;5043233;28;20029;-73
2022/09/27 05:32:42;;;;;;;4.07;0.40;;;;;;;10.53;88.16;99851.47;5033284;28;20496;-74
2022/09/27 05:35:08;;;;;;;2.03;0.47;;;;;;;10.51;88.24;99858.31;5038374;28;20074;-74
2022/09/27 05:37:34;;;;;;;2.58;0.50;;;;;;;10.46;87.78;99854.84;5047669;28;20052;-74
2022/09/27 05:40:00;;;;;;;2.45;0.60;;;;;;;10.46;88.52;99854.84;5043320;28;20040;-73
2022/09/27 05:42:25;;;;;;;3.03;0.60;;;;;;;10.47;88.89;99859.13;5040969;28;20029;-74
2022/09/27 05:44:51;;;;;;;3.05;0.50;;;;;;;10.40;88.28;99863.31;5023007;28;20037;-74
2022/09/27 05:47:16;;;;;;;3.90;0.70;;;;;;;10.38;88.90;99852.19;5039687;28;20037;-74
2022/09/27 05:49:42;;;;;;;2.33;0.40;;;;;;;10.40;88.67;99850.47;5009785;28;20025;-74
2022/09/27 05:52:07;;;;;;;1.55;0.32;;;;;;;10.46;88.74;99847.97;5037850;28;20147;-74
2022/09/27 05:54:33;;;;;;;4.20;0.88;;;;;;;10.46;89.03;99844.56;5043091;28;20526;-74
2022/09/27 05:56:59;;;;;;;4.88;0.90;;;;;;;10.43;88.47;99847.97;5037467;28;20115;-75
2022/09/27 05:59:27;;;;;;;2.50;0.47;;;;;;;10.41;88.63;99847.06;5025476;28;20116;-74
2022/09/27 06:01:53;;;;;;;3.03;0.73;;;;;;;10.45;88.54;99856.53;5038402;28;20037;-74
2022/09/27 06:04:19;;;;;;;2.25;0.50;;;;;;;10.44;88.70;99849.69;5043546;28;20037;-75
2022/09/27 06:06:45;;;;;;;3.45;0.70;;;;;;;10.43;88.87;99855.66;5032953;28;20036;-75
2022/09/27 06:09:11;;;;;;;1.77;0.47;;;;;;;10.40;88.74;99849.63;5037936;28;20400;-75
2022/09/27 06:11:40;;;;;;;2.72;0.45;;;;;;;10.40;88.74;99849.63;5037223;28;20138;-75
2022/09/27 06:14:05;;;;;;;3.33;0.50;;;;;;;10.42;88.67;99860.75;5039856;28;20043;-74
2022/09/27 06:16:31;;;;;;;1.23;0.30;;;;;;;10.47;88.06;99874.53;5039481;28;20033;-75
2022/09/27 06:18:56;;;;;;;2.22;0.30;;;;;;;10.37;88.57;99870.13;5041221;28;20037;-74
2022/09/27 06:21:23;;;;;;;3.35;0.30;;;;;;;10.40;88.58;99875.31;5025848;28;20029;-74
2022/09/27 06:23:48;;;;;;;3.80;0.38;;;;;;;10.33;88.60;99866.66;5039872;28;20037;-74
2022/09/27 06:26:14;;;;;;;2.25;0.30;;;;;;;10.35;88.48;99871.81;5038543;28;20399;-74
2022/09/27 06:28:39;;;;;;;2.47;0.47;;;;;;;10.37;88.43;99873.53;5043554;28;20064;-75
2022/09/27 06:31:07;;;;;;;5.43;0.40;;;;;;;10.39;87.93;99868.44;5027080;28;20021;-74
2022/09/27 06:33:34;;;;;;;1.20;0.40;;;;;;;10.39;88.09;99876.16;5042442;28;20819;-75
2022/09/27 06:36:07;;;;;;;1.88;0.40;;;;;;;10.39;88.44;99873.59;5039744;28;20032;-74
2022/09/27 06:38:33;;;;;;;3.72;0.40;;;;;;;10.37;87.96;99865.84;5044917;28;20067;-74
2022/09/27 06:41:02;;;;;;;3.60;0.40;;;;;;;10.37;88.03;99870.13;5031982;28;20461;-74
2022/09/27 06:43:29;;;;;;;2.05;0.50;;;;;;;10.37;88.37;99865.84;5039958;28;20037;-73
2022/09/27 06:45:54;;;;;;;1.98;0.43;;;;;;;10.40;88.27;99881.31;5037632;28;20048;-73
2022/09/27 06:48:20;;;;;;;0.93;0.43;;;;;;;10.39;88.58;99877.03;5038568;28;20107;-74
2022/09/27 06:50:47;;;;;;;1.95;0.40;;;;;;;10.41;88.69;99872.75;5043494;28;20443;-75
2022/09/27 06:53:14;;;;;;;2.03;0.50;;;;;;;10.44;88.59;99867.66;5044195;28;20025;-75
2022/09/27 06:55:40;;;;;;;2.00;0.60;;;;;;;10.37;88.74;99860.69;5034610;28;20048;-75
2022/09/27 07:00:52;;;;;;;2.00;0.80;;;;;;;10.42;88.51;99869.34;5036353;28;20116;-75
2022/09/27 07:03:18;;;;;;;2.85;0.55;;;;;;;10.46;88.99;99875.38;5042368;28;20044;-76
2022/09/27 07:05:54;;;;;;;2.95;0.70;;;;;;;10.51;89.00;99884.03;5039006;28;20040;-76
2022/09/27 07:08:20;;;;;;;1.67;0.80;;;;;;;10.39;88.59;99877.03;5013069;28;20033;-75
2022/09/27 07:10:45;;;;;;;1.50;0.60;;;;;;;10.46;88.47;99877.97;5041377;28;20040;-73
2022/09/27 07:13:11;;;;;;;3.40;0.85;;;;;;;10.45;89.14;99887.38;5049363;28;20040;-75
2022/09/27 07:15:44;;;;;;;3.97;0.90;;;;;;;10.47;89.44;99887.38;5041061;28;20034;-74
2022/09/27 07:18:10;;;;;;;2.97;0.73;;;;;;;10.50;89.46;99887.44;5032568;28;20111;-74
2022/09/27 07:20:37;;;;;;;2.42;0.82;;;;;;;10.50;89.59;99887.44;5049342;28;21059;-74
2022/09/27 07:23:04;;;;;;;2.90;0.82;;;;;;;10.51;89.59;99890.88;5014747;28;20032;-74
2022/09/27 07:25:33;;;;;;;2.95;1.05;;;;;;;10.50;89.89;99905.44;5051822;28;20029;-74
2022/09/27 07:28:07;;;;;;;1.90;1.00;;;;;;;10.56;89.92;99887.53;5048649;28;20040;-75
2022/09/27 07:30:35;;;;;;;1.98;0.82;;;;;;;10.55;89.61;99890.91;5042833;28;20033;-75
2022/09/27 07:33:22;;;;;;;3.17;1.20;;;;;;;10.63;89.64;99898.75;5051118;28;20032;-75
2022/09/27 07:35:51;;;;;;;2.10;0.90;;;;;;;10.59;89.70;99904.69;5047050;28;20024;-75
2022/09/27 07:38:16;;;;;;;4.07;1.20;;;;;;;10.52;90.31;99896.03;5047859;28;20060;-74
2022/09/27 07:40:45;;;;;;;3.03;1.35;;;;;;;10.56;90.16;99897.81;5026354;28;20118;-75
2022/09/27 07:43:11;;;;;;;2.87;1.00;;;;;;;10.59;89.57;99902.97;5027719;28;20228;-76
2022/09/27 07:45:40;;;;;;;3.05;1.35;;;;;;;10.51;90.39;99914.00;5029644;28;20321;-76
2022/09/27 07:48:16;;;;;;;3.72;1.33;;;;;;;10.57;90.37;99914.09;5032092;28;20032;-74
2022/09/27 07:51:02;;;;;;;3.17;1.30;;;;;;;10.58;90.57;99910.66;5044285;28;20593;-76
2022/09/27 07:53:30;;;;;;;3.50;1.75;;;;;;;10.50;90.29;99905.44;5030926;28;20017;-75
2022/09/27 07:55:57;;;;;;;3.70;1.38;;;;;;;10.46;90.33;99903.66;5052806;28;20376;-77
2022/09/27 07:58:31;;;;;;;2.20;1.48;;;;;;;10.47;91.04;99901.09;5037170;28;20132;-75
2022/09/27 08:01:22;;;;;;;4.55;1.60;;;;;;;10.59;91.32;99926.09;5046842;28;20064;-75
2022/09/27 08:03:57;;;;;;;5.35;1.85;;;;;;;10.49;90.80;99903.69;5025589;28;20026;-74
2022/09/27 08:06:26;;;;;;;2.70;1.75;;;;;;;10.48;90.55;99904.53;5048692;28;20036;-75
2022/09/27 08:09:38;;;;;;;4.95;2.72;;;;;;;10.62;91.19;99908.16;5030690;28;20041;-75
2022/09/27 08:12:20;;;;;;;3.33;2.20;;;;;;;10.71;90.76;99922.81;5018730;28;20385;-76
2022/09/27 08:15:04;;;;;;;4.70;2.20;;;;;;;10.70;91.09;99915.97;5031205;28;20052;-75
2022/09/27 08:17:36;;;;;;;5.70;2.28;;;;;;;10.57;90.52;99890.94;5030661;28;20026;-74
2022/09/27 08:20:06;;;;;;;3.67;2.33;;;;;;;10.68;90.83;99917.66;5032086;28;20036;-73
2022/09/27 08:22:41;;;;;;;5.40;2.80;;;;;;;10.68;90.38;99917.66;5023787;28;20205;-76
2022/09/27 08:25:29;;;;;;;4.82;2.53;;;;;;;10.56;90.76;99899.50;5028099;28;20475;-76
2022/09/27 08:28:31;;;;;;;4.75;2.90;;;;;;;10.72;90.47;99914.25;5026872;28;20097;-75
2022/09/27 08:31:20;;;;;;;4.20;2.78;;;;;;;10.70;90.99;99908.25;4987834;28;20044;-75
2022/09/27 08:37:19;;;;;;;3.92;2.85;;;;;;;10.70;89.64;99903.97;5008183;28;20539;-74
2022/09/27 08:39:48;;;;;;;5.60;2.88;;;;;;;10.71;90.79;99894.53;5026183;28;20025;-75
2022/09/27 08:42:38;;;;;;;6.18;3.38;;;;;;;10.83;91.21;99935.84;5027495;28;20099;-75
2022/09/27 08:45:12;;;;;;;6.70;3.45;;;;;;;10.88;90.32;99941.03;5019721;28;20036;-74
2022/09/27 08:47:46;;;;;;;5.07;3.30;;;;;;;10.86;90.93;99943.59;5021116;28;20034;-73
2022/09/27 08:50:24;;;;;;;8.75;3.92;;;;;;;10.90;91.12;99947.06;5025130;28;20021;-74
2022/09/27 08:53:19;;;;;;;4.93;3.40;;;;;;;10.94;90.99;99948.84;5016156;28;20034;-74
2022/09/27 08:55:48;;;;;;;5.35;3.83;;;;;;;10.89;90.66;99945.34;5020060;28;20021;-72
2022/09/27 08:58:24;;;;;;;5.22;3.63;;;;;;;10.91;91.10;99948.78;5016876;28;20380;-73
2022/09/27 09:00:54;;;;;;;5.60;4.15;;;;;;;10.90;91.21;99954.78;5020577;28;20133;-74
2022/09/27 09:03:27;;;;;;;5.03;4.22;;;;;;;10.91;91.17;99946.22;5022013;28;20189;-73
2022/09/27 09:06:10;;;;;;;7.70;5.20;;;;;;;10.93;90.88;99957.41;5021878;28;20068;-73
2022/09/27 09:09:10;;;;;;;7.07;4.78;;;;;;;10.94;91.08;99956.56;5023036;28;20080;-73
2022/09/27 09:15:14;;;;;;;7.72;5.07;;;;;;;10.99;91.83;99967.75;5021620;28;20067;-72
2022/09/27 09:18:20;;;;;;;8.43;5.10;;;;;;;11.02;91.51;99965.22;5019777;28;20120;-72
2022/09/27 09:21:25;;;;;;;7.57;5.35;;;;;;;11.03;91.92;99969.50;5018172;28;20028;-72
2022/09/27 09:24:19;;;;;;;7.93;5.90;;;;;;;11.03;91.96;99966.94;5020791;28;20056;-73
2022/09/27 09:27:12;;;;;;;8.75;5.43;;;;;;;10.99;92.04;99973.75;5038885;28;20029;-72
2022/09/27 09:30:06;;;;;;;9.70;5.82;;;;;;;11.02;92.20;99970.34;5015642;28;20485;-73
2022/09/27 09:32:57;;;;;;;6.45;5.18;;;;;;;10.98;91.69;99977.19;5031233;28;20166;-73
2022/09/27 09:35:30;;;;;;;9.20;5.32;;;;;;;11.00;91.41;99972.91;5018882;28;20168;-73
2022/09/27 09:41:45;;;;;;;7.25;5.25;;;;;;;10.98;92.21;99959.19;5016955;28;20026;-73
2022/09/27 09:44:11;;;;;;;9.25;5.35;;;;;;;11.05;91.80;99975.56;5014022;28;20069;-74
2022/09/27 09:46:43;;;;;;;8.60;5.00;;;;;;;10.98;91.74;99955.72;5023822;28;20060;-75
2022/09/27 09:49:27;;;;;;;8.27;5.50;;;;;;;11.09;91.90;99972.16;5017325;28;20056;-74
2022/09/27 09:52:11;;;;;;;5.53;3.20;;;;;;;11.03;89.73;99966.94;5015617;28;20048;-74
2022/09/27 09:54:45;;;;;;;4.38;2.10;;;;;;;10.98;87.90;99960.88;5016930;28;20092;-74
2022/09/27 09:57:15;;;;;;;4.43;2.10;;;;;;;10.94;87.89;99966.84;5019484;28;20024;-74
2022/09/27 09:59:57;;;;;;;1.80;1.20;;;;;;;10.98;87.99;99956.63;5020443;28;20037;-74
2022/09/27 10:02:41;;;;;;;2.67;1.20;;;;;;;10.93;87.72;99963.41;5040544;28;20408;-73
2022/09/27 10:05:13;;;;;;;5.55;1.63;;;;;;;10.88;87.71;99967.63;5030524;28;20037;-74
2022/09/27 10:07:41;;;;;;;2.05;1.85;;;;;;;10.89;89.13;99968.47;5019251;28;20038;-73
2022/09/27 10:10:10;;;;;;;2.85;1.77;;;;;;;10.93;89.32;99978.84;5019170;28;21028;-72
2022/09/27 10:12:36;;;;;;;;;;;;;;;11.07;88.51;99968.72;5037681;28;20021;-74
2022/09/27 10:15:04;;;;;;;5.00;2.28;;;;;;;10.87;89.84;99965.91;5023313;28;19924;-75
2022/09/27 10:17:43;;;;;;;3.90;2.05;;;;;;;10.95;89.96;99964.28;5023189;28;20032;-74
2022/09/27 10:20:37;;;;;;;5.07;1.63;;;;;;;10.95;89.95;99971.13;5036624;28;20384;-73
2022/09/27 10:23:13;;;;;;;3.40;1.40;;;;;;;10.94;88.75;99975.41;5036583;28;20454;-73
2022/09/27 10:26:09;;;;;;;2.53;1.40;;;;;;;10.97;88.91;99982.28;5019143;28;20026;-73
2022/09/27 10:28:43;;;;;;;3.15;1.00;;;;;;;10.91;88.22;99971.94;5014793;28;20067;-75
2022/09/27 10:31:12;;;;;;;2.53;1.08;;;;;;;10.74;87.96;99959.75;5036702;28;20113;-72
2022/09/27 10:33:52;;;;;;;2.10;1.17;;;;;;;10.92;88.78;99973.66;5040685;28;20040;-74
2022/09/27 10:36:31;;;;;;;5.43;1.20;;;;;;;10.89;88.98;99974.50;5037879;28;20033;-75
2022/09/27 10:39:03;;;;;;;2.22;1.00;;;;;;;10.86;88.31;99978.72;5016068;28;20041;-75
2022/09/27 10:44:55;;;;;;;2.35;1.25;;;;;;;10.81;89.06;99952.09;5014477;28;20041;-74
2022/09/27 10:47:32;;;;;;;1.48;0.50;;;;;;;10.89;88.19;99964.19;5036934;28;20472;-76
2022/09/27 10:50:20;;;;;;;1.70;0.60;;;;;;;10.88;88.09;99966.75;5043569;28;20050;-75
2022/09/27 10:53:02;;;;;;;2.13;0.40;;;;;;;10.92;88.39;99974.53;5019251;28;20020;-76
2022/09/27 10:55:36;;;;;;;1.65;0.40;;;;;;;10.87;87.36;99976.19;5027378;28;20536;-74
2022/09/27 10:58:05;;;;;;;2.33;0.80;;;;;;;10.84;87.33;99967.56;5038633;28;20600;-75
2022/09/27 11:00:40;;;;;;;1.25;0.68;;;;;;;10.78;87.33;99960.63;5034908;28;20029;-74
2022/09/27 11:03:21;;;;;;;1.08;0.40;;;;;;;10.78;87.88;99958.06;5018889;28;20046;-73
2022/09/27 11:05:49;;;;;;;1.95;0.60;;;;;;;10.86;88.05;99974.47;4992837;28;20033;-73
2022/09/27 11:08:26;;;;;;;4.03;0.53;;;;;;;10.81;88.44;99975.25;5037840;28;20033;-75
2022/09/27 11:11:09;;;;;;;1.83;0.50;;;;;;;10.84;87.22;99967.56;5041195;28;20296;-73
2022/09/27 11:13:35;;;;;;;1.75;0.60;;;;;;;10.87;88.42;99981.34;5031967;28;20098;-73
2022/09/27 11:16:28;;;;;;;2.17;0.50;;;;;;;10.95;88.87;99972.00;5017009;28;20017;-74
2022/09/27 11:19:22;;;;;;;1.90;0.47;;;;;;;11.01;88.32;99966.06;5034167;28;20138;-72
2022/09/27 11:22:09;;;;;;;1.50;0.50;;;;;;;11.01;89.15;99974.63;5037819;28;20033;-74
2022/09/27 11:24:47;;;;;;;1.42;0.40;;;;;;;11.00;88.10;99972.06;5036410;28;20519;-75
2022/09/27 11:27:53;;;;;;;1.58;0.40;;;;;;;11.03;87.93;99972.06;5036276;28;20028;-74
2022/09/27 11:30:35;;;;;;;1.00;0.40;;;;;;;10.94;88.33;99952.25;5037302;28;20820;-73
2022/09/27 11:33:38;;;;;;;1.67;0.40;;;;;;;11.03;88.08;99966.94;5024647;28;20040;-75
2022/09/27 11:36:31;;;;;;;0.95;0.40;;;;;;;11.09;87.84;99959.28;5039899;28;20033;-76
2022/09/27 11:39:32;;;;;;;1.58;0.40;;;;;;;11.18;88.37;99961.97;5037587;28;20047;-74
2022/09/27 11:42:42;;;;;;;2.10;0.50;;;;;;;11.22;87.90;99950.88;4961358;28;20120;-73
2022/09/27 11:45:45;;;;;;;2.53;0.40;;;;;;;11.24;87.64;99956.03;5006012;28;20435;-73
2022/09/27 11:48:42;;;;;;;0.93;0.40;;;;;;;11.12;87.40;99927.59;4996848;28;20719;-71
2022/09/27 11:51:38;;;;;;;0.65;0.30;;;;;;;11.24;86.83;99945.75;5025970;28;20021;-72
2022/09/27 11:54:22;;;;;;;1.63;0.20;;;;;;;11.27;87.21;99953.47;5024967;28;20438;-74
2022/09/27 11:57:15;;;;;;;1.38;0.38;;;;;;;11.18;85.67;99951.69;5040255;28;20033;-73
2022/09/27 12:00:09;;;;;;;1.75;0.45;;;;;;;11.22;85.90;99953.47;5044903;28;20479;-73
2022/09/27 12:02:57;;;;;;;1.38;0.45;;;;;;;11.27;86.85;99951.75;5024496;28;20037;-73
2022/09/27 12:05:27;;;;;;;;;;;;;;;11.39;85.75;99945.88;5023954;28;20509;-73
2022/09/27 12:08:45;;;;;;;1.75;0.40;;;;;;;11.34;86.83;99949.25;5019454;28;19923;-74
2022/09/27 12:12:02;;;;;;;1.50;0.40;;;;;;;11.42;86.79;99942.50;5018982;28;20041;-75
2022/09/27 12:14:49;;;;;;;1.23;0.30;;;;;;;11.31;84.96;99949.25;5019386;28;20518;-77
2022/09/27 12:17:23;;;;;;;1.58;0.30;;;;;;;11.32;87.17;99938.09;5020625;28;20029;-72
2022/09/27 12:19:57;;;;;;;2.50;0.50;;;;;;;11.41;85.84;99949.34;5017829;28;20067;-73
2022/09/27 12:22:34;;;;;;;1.05;0.20;;;;;;;11.40;86.20;99939.03;5015470;28;20033;-74